Погода Дробета-Турну-Северинна неделю

Юго-Западный, Румыния

12 - 18 июля
  • 12июля
    Сегодня
    +22°
    +38°
    Практически безоблачно
    ВремяПогодаТемператураВлажностьДавлениеВетер, м/сВероятность осадков
    00:00Ясно и безоблачно+27°C61 %756 мм1.7 м/с2 %
    03:00Ясно и безоблачно+24°C67 %756 мм1.6 м/с2 %
    06:00Ясно и безоблачно+23°C71 %756 мм1.3 м/с2 %
    09:00Ясно и безоблачно+27°C60 %756 мм1.0 м/с2 %
    12:00Ясно и безоблачно+33°C45 %756 мм2.2 м/с2 %
    15:00Практически безоблачно+36°C32 %754 мм2.8 м/с2 %
    18:00Ясно и безоблачно+37°C27 %753 мм3.1 м/с2 %
    21:00Ясно и безоблачно+34°C30 %753 мм2.7 м/с2 %
  • 13июля
    Суббота
    +22°
    +39°
    Ясно и безоблачно
    ВремяПогодаТемператураВлажностьДавлениеВетер, м/сВероятность осадков
    00:00Ясно и безоблачно+26°C60 %753 мм1.9 м/с2 %
    03:00Ясно и безоблачно+23°C66 %753 мм1.9 м/с2 %
    06:00Ясно и безоблачно+22°C56 %753 мм1.9 м/с2 %
    09:00Ясно и безоблачно+27°C50 %754 мм1.7 м/с2 %
    12:00Ясно и безоблачно+34°C39 %754 мм2.5 м/с2 %
    15:00Ясно и безоблачно+37°C30 %753 мм3.3 м/с2 %
    18:00Ясно и безоблачно+38°C30 %752 мм2.8 м/с2 %
    21:00Ясно и безоблачно+34°C45 %752 мм2.2 м/с2 %
  • 14июля
    Воскресенье
    +24°
    +39°
    Ясно и безоблачно
    ВремяПогодаТемператураВлажностьДавлениеВетер, м/сВероятность осадков
    00:00Ясно и безоблачно+28°C60 %753 мм1.5 м/с2 %
    03:00Ясно и безоблачно+25°C64 %753 мм1.6 м/с2 %
    06:00Ясно и безоблачно+23°C63 %753 мм1.5 м/с2 %
    09:00Ясно и безоблачно+28°C52 %754 мм1.1 м/с2 %
    12:00Ясно и безоблачно+34°C36 %754 мм1.9 м/с2 %
    15:00Ясно и безоблачно+38°C29 %753 мм2.8 м/с2 %
    18:00Ясно и безоблачно+39°C30 %752 мм2.4 м/с2 %
    21:00Ясно и безоблачно+35°C46 %753 мм2.5 м/с2 %
  • 15июля
    Понедельник
    +24°
    +40°
    Ясно и безоблачно
    ВремяПогодаТемператураВлажностьДавлениеВетер, м/сВероятность осадков
    00:00Ясно и безоблачно+29°C58 %753 мм1.7 м/с2 %
    03:00Ясно и безоблачно+26°C71 %753 мм1.5 м/с2 %
    06:00Ясно и безоблачно+25°C65 %754 мм1.8 м/с2 %
    09:00Ясно и безоблачно+29°C48 %755 мм1.6 м/с2 %
    12:00Ясно и безоблачно+35°C37 %755 мм2.3 м/с2 %
    15:00Ясно и безоблачно+38°C29 %754 мм2.2 м/с2 %
    18:00Ясно и безоблачно+40°C31 %753 мм2.8 м/с2 %
    21:00Ясно и безоблачно+36°C39 %753 мм3.0 м/с2 %
  • 16июля
    Вторник
    +26°
    +41°
    Ясно и безоблачно
    ВремяПогодаТемператураВлажностьДавлениеВетер, м/сВероятность осадков
    00:00Ясно и безоблачно+29°C58 %754 мм1.5 м/с2 %
    03:00Ясно и безоблачно+27°C64 %754 мм1.6 м/с2 %
    06:00Ясно и безоблачно+24°C61 %754 мм1.7 м/с2 %
    09:00Ясно и безоблачно+29°C50 %756 мм1.7 м/с2 %
    12:00Ясно и безоблачно+36°C32 %756 мм2.3 м/с2 %
    15:00Ясно и безоблачно+39°C25 %754 мм2.6 м/с2 %
    18:00Практически безоблачно+40°C27 %753 мм2.6 м/с2 %
    21:00Ясно и безоблачно+38°C31 %753 мм2.4 м/с2 %
Мы используем cookies
Соглашаюсь